Time;durP1;ratioP1;P1;durP2;ratioP2;P2;SDS_P1;SDS_P2;PMS_P1;PMS_P2;Temp;Humidity;BMP_temperature;BMP_pressure;BME280_temperature;BME280_humidity;BME280_pressure;Samples;Min_cycle;Max_cycle;Signal;HPM_P1;HPM_P2
2023/12/12 00:00:27;;;;;;;2.83;2.63;;;6.40;99.90;;;;;;4927534;29;20455;-55
2023/12/12 00:02:54;;;;;;;4.67;2.27;;;6.40;99.90;;;;;;4927205;29;20545;-58
2023/12/12 00:05:20;;;;;;;1.80;1.70;;;6.40;99.90;;;;;;4922699;29;20490;-57
2023/12/12 00:07:48;;;;;;;1.70;1.60;;;6.40;99.90;;;;;;4924885;29;20486;-56
2023/12/12 00:10:15;;;;;;;1.90;1.80;;;6.40;99.90;;;;;;4925114;29;20491;-56
2023/12/12 00:12:42;;;;;;;1.40;1.30;;;6.40;99.90;;;;;;4928468;29;20486;-58
2023/12/12 00:15:08;;;;;;;1.50;1.40;;;6.40;99.90;;;;;;4930461;29;20471;-56
2023/12/12 00:17:35;;;;;;;1.30;1.30;;;6.40;99.90;;;;;;4934693;29;20494;-56
2023/12/12 00:20:02;;;;;;;1.40;1.30;;;6.40;99.90;;;;;;4934262;29;20499;-56
2023/12/12 00:22:28;;;;;;;1.93;1.83;;;6.40;99.90;;;;;;4931594;29;20594;-56
2023/12/12 00:24:56;;;;;;;1.30;1.30;;;6.40;99.90;;;;;;4926120;29;20494;-58
2023/12/12 00:27:23;;;;;;;1.60;1.50;;;6.40;99.90;;;;;;4924151;29;20467;-57
2023/12/12 00:29:50;;;;;;;2.30;2.00;;;6.40;99.90;;;;;;4928536;29;20847;-57
2023/12/12 00:32:16;;;;;;;2.10;2.00;;;6.40;99.90;;;;;;4932144;29;20483;-56
2023/12/12 00:34:43;;;;;;;2.20;2.00;;;6.40;99.90;;;;;;4929938;29;20491;-57
2023/12/12 00:37:10;;;;;;;1.93;1.83;;;6.40;99.90;;;;;;4931150;29;20494;-57
2023/12/12 00:39:37;;;;;;;2.97;2.10;;;6.40;99.90;;;;;;4933871;29;21044;-56
2023/12/12 00:42:06;;;;;;;2.03;1.93;;;6.40;99.90;;;;;;4931631;29;20490;-56
2023/12/12 00:44:34;;;;;;;2.70;2.50;;;6.40;99.90;;;;;;4930320;29;21020;-58
2023/12/12 00:47:01;;;;;;;2.27;2.17;;;6.40;99.90;;;;;;4927300;29;20472;-57
2023/12/12 00:49:27;;;;;;;2.30;2.10;;;6.30;99.90;;;;;;4930887;29;20562;-56
2023/12/12 00:51:54;;;;;;;2.07;1.97;;;6.30;99.90;;;;;;4931867;29;20519;-56
2023/12/12 00:54:20;;;;;;;2.33;2.23;;;6.30;99.90;;;;;;4928281;29;20459;-56
2023/12/12 00:56:47;;;;;;;2.77;2.57;;;6.30;99.90;;;;;;4930687;29;20499;-56
2023/12/12 00:59:15;;;;;;;2.90;2.70;;;6.30;99.90;;;;;;4930424;29;20717;-58
2023/12/12 01:01:42;;;;;;;1.83;1.73;;;6.30;99.90;;;;;;4933274;29;20518;-57
2023/12/12 01:04:09;;;;;;;8.37;2.67;;;6.30;99.90;;;;;;4928769;29;20515;-57
2023/12/12 01:06:35;;;;;;;2.50;2.30;;;6.30;99.90;;;;;;4930835;29;20526;-57
2023/12/12 01:09:02;;;;;;;2.03;1.90;;;6.20;99.90;;;;;;4930465;29;20498;-57
2023/12/12 01:11:29;;;;;;;1.90;1.80;;;6.20;99.90;;;;;;4931585;29;20538;-57
2023/12/12 01:13:55;;;;;;;2.10;1.97;;;6.20;99.90;;;;;;4931825;29;20499;-57
2023/12/12 01:16:23;;;;;;;1.90;1.80;;;6.20;99.90;;;;;;4926708;29;20503;-57
2023/12/12 01:18:50;;;;;;;2.40;2.30;;;6.20;99.90;;;;;;4929444;29;20486;-56
2023/12/12 01:21:16;;;;;;;2.13;2.03;;;6.20;99.90;;;;;;4931499;29;20816;-56
2023/12/12 01:23:54;;;;;;;1.83;1.73;;;6.20;99.90;;;;;;4929882;29;20566;-57
2023/12/12 01:26:21;;;;;;;2.23;2.13;;;6.10;99.90;;;;;;4932351;29;20483;-57
2023/12/12 01:28:48;;;;;;;1.93;1.83;;;6.10;99.90;;;;;;4929191;29;20486;-57
2023/12/12 01:31:15;;;;;;;5.33;2.90;;;6.10;99.90;;;;;;4931921;29;20483;-58
2023/12/12 01:33:43;;;;;;;2.47;2.37;;;6.10;99.90;;;;;;4932047;29;20463;-57
2023/12/12 01:36:10;;;;;;;2.10;2.00;;;6.10;99.90;;;;;;4931884;29;20939;-58
2023/12/12 01:38:37;;;;;;;2.07;2.00;;;6.10;99.90;;;;;;4933783;29;20956;-56
2023/12/12 01:41:04;;;;;;;2.20;2.10;;;6.10;99.90;;;;;;4927118;29;20554;-57
2023/12/12 01:43:32;;;;;;;2.00;1.90;;;6.00;99.90;;;;;;4930277;29;20893;-58
2023/12/12 01:46:01;;;;;;;2.13;2.03;;;6.00;99.90;;;;;;4931473;29;20504;-58
2023/12/12 01:48:29;;;;;;;2.67;2.47;;;6.00;99.90;;;;;;4934441;29;20542;-57
2023/12/12 01:50:57;;;;;;;1.87;1.77;;;6.00;99.90;;;;;;4933728;29;20528;-56
2023/12/12 01:53:27;;;;;;;2.03;1.93;;;6.00;99.90;;;;;;4935572;29;20822;-56
2023/12/12 01:55:54;;;;;;;2.17;2.07;;;6.00;99.90;;;;;;4929087;29;20499;-56
2023/12/12 01:58:22;;;;;;;2.33;2.20;;;6.00;99.90;;;;;;4931126;29;20663;-57
2023/12/12 02:00:48;;;;;;;1.80;1.70;;;6.00;99.90;;;;;;4939980;29;20874;-57
2023/12/12 02:03:16;;;;;;;1.80;1.80;;;6.00;99.90;;;;;;4933664;29;20905;-58
2023/12/12 02:05:44;;;;;;;2.20;2.00;;;6.00;99.90;;;;;;4928465;29;21308;-57
2023/12/12 02:08:13;;;;;;;2.27;2.17;;;6.00;99.90;;;;;;4934130;29;20534;-57
2023/12/12 02:10:40;;;;;;;2.93;2.47;;;6.00;99.90;;;;;;4935843;29;20880;-57
2023/12/12 02:13:07;;;;;;;2.90;2.50;;;5.90;99.90;;;;;;4936559;29;20482;-56
2023/12/12 02:15:33;;;;;;;2.07;1.97;;;5.90;99.90;;;;;;4934156;29;20578;-57
2023/12/12 02:18:00;;;;;;;2.40;2.30;;;5.90;99.90;;;;;;4934518;29;20467;-56
2023/12/12 02:20:26;;;;;;;2.07;1.97;;;5.90;99.90;;;;;;4924046;29;20476;-58
2023/12/12 02:22:54;;;;;;;2.60;2.30;;;5.90;99.90;;;;;;4927651;29;20547;-57
2023/12/12 02:25:21;;;;;;;2.00;1.90;;;5.90;99.90;;;;;;4929008;29;20471;-57
2023/12/12 02:27:48;;;;;;;2.30;2.13;;;5.90;99.90;;;;;;4928139;29;20961;-56
2023/12/12 02:30:16;;;;;;;2.43;2.30;;;5.90;99.90;;;;;;4926403;29;20522;-57
2023/12/12 02:32:42;;;;;;;5.93;2.50;;;5.80;99.90;;;;;;4931399;29;20478;-57
2023/12/12 02:35:09;;;;;;;3.60;2.00;;;5.80;99.90;;;;;;4930273;29;20483;-57
2023/12/12 02:37:36;;;;;;;2.07;1.97;;;5.80;99.90;;;;;;4927042;29;20504;-56
2023/12/12 02:40:04;;;;;;;1.93;1.83;;;5.80;99.90;;;;;;4928889;29;20459;-57
2023/12/12 02:42:31;;;;;;;1.77;1.67;;;5.70;99.90;;;;;;4925879;29;20493;-57
2023/12/12 02:44:58;;;;;;;2.43;2.20;;;5.70;99.90;;;;;;4929969;29;20483;-56
2023/12/12 02:47:24;;;;;;;2.20;2.10;;;5.70;99.90;;;;;;4930078;29;20455;-57
2023/12/12 02:49:51;;;;;;;2.00;1.90;;;5.70;99.90;;;;;;4925242;29;20472;-56
2023/12/12 02:52:17;;;;;;;2.37;2.27;;;5.60;99.90;;;;;;4930587;29;20851;-56
2023/12/12 02:54:44;;;;;;;1.93;1.83;;;5.60;99.90;;;;;;4923746;29;20480;-56
2023/12/12 02:57:12;;;;;;;2.13;2.03;;;5.60;99.90;;;;;;4928361;29;20913;-56
2023/12/12 02:59:38;;;;;;;2.10;2.00;;;5.60;99.90;;;;;;4928724;29;21025;-57
2023/12/12 03:02:05;;;;;;;2.23;2.13;;;5.60;99.90;;;;;;4930534;29;21057;-57
2023/12/12 03:04:32;;;;;;;2.37;2.27;;;5.60;99.90;;;;;;4929742;29;20906;-57
2023/12/12 03:06:58;;;;;;;2.10;2.00;;;5.50;99.90;;;;;;4923323;29;21041;-56
2023/12/12 03:09:25;;;;;;;1.80;1.80;;;5.60;99.90;;;;;;4929227;29;20880;-56
2023/12/12 03:11:52;;;;;;;2.30;2.20;;;5.60;99.90;;;;;;4925671;29;20893;-57
2023/12/12 03:14:27;;;;;;;2.00;1.93;;;5.60;99.90;;;;;;4931879;29;20444;-57
2023/12/12 03:16:53;;;;;;;2.47;2.37;;;5.60;99.90;;;;;;4932940;29;20538;-57
2023/12/12 03:19:20;;;;;;;2.20;2.10;;;5.60;99.90;;;;;;4930379;29;20510;-56
2023/12/12 03:21:46;;;;;;;2.10;2.00;;;5.60;99.90;;;;;;4932245;29;20482;-57
2023/12/12 03:24:13;;;;;;;2.30;2.20;;;5.60;99.90;;;;;;4929620;29;20596;-57
2023/12/12 03:26:39;;;;;;;2.30;2.20;;;5.60;99.90;;;;;;4931126;29;20535;-57
2023/12/12 03:29:06;;;;;;;2.60;2.40;;;5.60;99.90;;;;;;4927210;29;20464;-57
2023/12/12 03:31:34;;;;;;;2.30;2.10;;;5.60;99.90;;;;;;4933001;29;20485;-57
2023/12/12 03:34:01;;;;;;;1.90;1.80;;;5.60;99.90;;;;;;4932635;29;20463;-57
2023/12/12 03:36:27;;;;;;;2.50;2.10;;;5.60;99.90;;;;;;4934193;29;20459;-57
2023/12/12 03:38:54;;;;;;;2.20;2.10;;;5.60;99.90;;;;;;4931595;29;20456;-57
2023/12/12 03:41:20;;;;;;;2.13;2.03;;;5.60;99.90;;;;;;4928864;29;20487;-56
2023/12/12 03:43:47;;;;;;;2.40;2.20;;;5.60;99.90;;;;;;4927669;29;20487;-58
2023/12/12 03:46:14;;;;;;;2.33;2.10;;;5.60;99.90;;;;;;4927837;29;20558;-57
2023/12/12 03:48:41;;;;;;;2.30;2.20;;;5.60;99.90;;;;;;4926577;29;20974;-57
2023/12/12 03:51:09;;;;;;;2.63;2.50;;;5.60;99.90;;;;;;4927196;29;20875;-57
2023/12/12 03:53:36;;;;;;;2.40;2.30;;;5.60;99.90;;;;;;4925992;29;20448;-57
2023/12/12 03:56:03;;;;;;;2.50;2.30;;;5.60;99.90;;;;;;4934413;29;20503;-57
2023/12/12 03:58:30;;;;;;;2.27;2.17;;;5.60;99.90;;;;;;4930493;29;20460;-56
2023/12/12 04:00:56;;;;;;;2.20;2.10;;;5.60;99.90;;;;;;4930847;29;20470;-57
2023/12/12 04:03:23;;;;;;;2.30;2.20;;;5.60;99.90;;;;;;4934251;29;20487;-57
2023/12/12 04:05:52;;;;;;;1.90;1.80;;;5.60;99.90;;;;;;4931801;29;20474;-57
2023/12/12 04:08:18;;;;;;;2.50;2.40;;;5.70;99.90;;;;;;4925833;29;20485;-56
2023/12/12 04:10:45;;;;;;;7.03;2.40;;;5.70;99.90;;;;;;4934547;29;20451;-58
2023/12/12 04:13:11;;;;;;;4.20;2.00;;;5.70;99.90;;;;;;4930609;29;20542;-57
2023/12/12 04:15:38;;;;;;;1.90;1.80;;;5.70;99.90;;;;;;4937456;29;20468;-57
2023/12/12 04:18:05;;;;;;;2.00;1.90;;;5.60;99.90;;;;;;4931924;29;20447;-56
2023/12/12 04:20:32;;;;;;;2.10;1.90;;;5.70;99.90;;;;;;4932634;29;20479;-57
2023/12/12 04:23:00;;;;;;;1.90;1.80;;;5.60;99.90;;;;;;4931236;29;20487;-57
2023/12/12 04:25:27;;;;;;;1.80;1.80;;;5.60;99.90;;;;;;4928451;29;20487;-57
2023/12/12 04:27:54;;;;;;;1.97;1.77;;;5.60;99.90;;;;;;4931746;29;20467;-57
2023/12/12 04:30:20;;;;;;;2.00;1.90;;;5.70;99.90;;;;;;4926842;29;20824;-57
2023/12/12 04:32:47;;;;;;;3.07;2.03;;;5.70;99.90;;;;;;4927812;29;21004;-57
2023/12/12 04:35:13;;;;;;;2.03;1.93;;;5.70;99.90;;;;;;4929882;29;20466;-57
2023/12/12 04:37:40;;;;;;;1.97;1.83;;;5.70;99.90;;;;;;4931539;29;20519;-57
2023/12/12 04:40:08;;;;;;;2.30;1.67;;;5.70;99.90;;;;;;4932666;29;20526;-57
2023/12/12 04:42:36;;;;;;;1.90;1.80;;;5.70;99.90;;;;;;4929860;28;20529;-59
2023/12/12 04:45:02;;;;;;;2.00;1.90;;;5.70;99.90;;;;;;4930726;29;20492;-57
2023/12/12 04:47:29;;;;;;;2.30;2.20;;;5.70;99.90;;;;;;4934406;29;20448;-56
2023/12/12 04:49:56;;;;;;;1.57;1.57;;;5.70;99.90;;;;;;4930313;29;20554;-55
2023/12/12 04:52:23;;;;;;;1.70;1.70;;;5.70;99.90;;;;;;4928453;29;20482;-57
2023/12/12 04:54:49;;;;;;;1.87;1.80;;;5.70;99.90;;;;;;4939207;29;20471;-57
2023/12/12 04:57:18;;;;;;;2.37;2.27;;;5.70;99.90;;;;;;4939016;29;20458;-57
2023/12/12 04:59:44;;;;;;;2.07;1.97;;;5.70;99.90;;;;;;4926058;29;20522;-57
2023/12/12 05:02:11;;;;;;;1.67;1.57;;;5.70;99.90;;;;;;4933405;28;20483;-57
2023/12/12 05:04:38;;;;;;;2.40;2.30;;;5.60;99.90;;;;;;4931495;29;20483;-57
2023/12/12 05:07:05;;;;;;;2.70;2.50;;;5.70;99.90;;;;;;4935556;29;21077;-56
2023/12/12 05:09:31;;;;;;;2.20;2.10;;;5.70;99.90;;;;;;4922816;29;20487;-57
2023/12/12 05:11:58;;;;;;;1.80;1.70;;;5.70;99.90;;;;;;4929866;29;20495;-58
2023/12/12 05:14:25;;;;;;;4.10;2.13;;;5.60;99.90;;;;;;4931727;29;20491;-57
2023/12/12 05:16:52;;;;;;;2.07;1.90;;;5.60;99.90;;;;;;4934117;29;20819;-57
2023/12/12 05:19:19;;;;;;;2.30;2.13;;;5.70;99.90;;;;;;4933007;29;20440;-56
2023/12/12 05:21:45;;;;;;;2.10;2.00;;;5.60;99.90;;;;;;4935653;29;20494;-57
2023/12/12 05:24:12;;;;;;;2.30;2.20;;;5.60;99.90;;;;;;4931745;29;20495;-56
2023/12/12 05:26:39;;;;;;;2.93;2.73;;;5.60;99.90;;;;;;4981956;23;21088;-55
2023/12/12 05:29:05;;;;;;;8.60;3.27;;;5.60;99.90;;;;;;4972836;28;20883;-53
2023/12/12 05:31:33;;;;;;;6.13;4.47;;;5.60;99.90;;;;;;4973899;28;20437;-54
2023/12/12 05:34:00;;;;;;;4.27;3.87;;;5.60;99.90;;;;;;4970914;28;20458;-54
2023/12/12 05:36:26;;;;;;;3.83;3.50;;;5.60;99.90;;;;;;4965541;28;20524;-54
2023/12/12 05:38:53;;;;;;;3.50;3.30;;;5.60;99.90;;;;;;4962003;28;20505;-54
2023/12/12 05:41:19;;;;;;;3.20;3.00;;;5.60;99.90;;;;;;4957122;28;20539;-53
2023/12/12 05:43:47;;;;;;;3.37;3.17;;;5.60;99.90;;;;;;4957560;28;20466;-54
2023/12/12 05:46:13;;;;;;;3.60;3.30;;;5.60;99.90;;;;;;4962262;28;20493;-53
2023/12/12 05:48:42;;;;;;;4.13;3.27;;;5.60;99.90;;;;;;4963322;28;20512;-55
2023/12/12 05:51:09;;;;;;;2.90;2.70;;;5.60;99.90;;;;;;4953667;28;20469;-54
2023/12/12 05:53:35;;;;;;;3.70;3.40;;;5.60;99.90;;;;;;4965108;28;20461;-53
2023/12/12 05:56:02;;;;;;;4.30;3.90;;;5.60;99.90;;;;;;4961178;28;20537;-55
2023/12/12 05:58:29;;;;;;;5.00;4.60;;;5.60;99.90;;;;;;4958826;28;20458;-54
2023/12/12 06:00:55;;;;;;;4.33;4.00;;;5.60;99.90;;;;;;4957019;28;20458;-54
2023/12/12 06:03:23;;;;;;;4.97;4.57;;;5.70;99.90;;;;;;4960899;28;20462;-54
2023/12/12 06:05:50;;;;;;;5.57;5.10;;;5.60;99.90;;;;;;4959219;28;21204;-54
2023/12/12 06:08:17;;;;;;;4.97;4.57;;;5.60;99.90;;;;;;4955456;28;20978;-54
2023/12/12 06:10:44;;;;;;;5.57;5.07;;;5.60;99.90;;;;;;4962350;28;20492;-55
2023/12/12 06:13:10;;;;;;;6.10;5.60;;;5.70;99.90;;;;;;4954616;28;20453;-54
2023/12/12 06:15:37;;;;;;;5.33;4.90;;;5.60;99.90;;;;;;4957742;28;20513;-53
2023/12/12 06:18:03;;;;;;;5.60;5.00;;;5.60;99.90;;;;;;4960876;28;21019;-55
2023/12/12 06:20:32;;;;;;;6.97;4.43;;;5.60;99.90;;;;;;4960251;28;20466;-55
2023/12/12 06:23:00;;;;;;;6.73;4.53;;;5.60;99.90;;;;;;4954261;28;20461;-55
2023/12/12 06:25:26;;;;;;;6.57;4.93;;;5.60;99.90;;;;;;4959432;28;20489;-53
2023/12/12 06:27:53;;;;;;;5.00;4.60;;;5.60;99.90;;;;;;4957507;28;20466;-53
2023/12/12 06:30:20;;;;;;;5.00;4.60;;;5.60;99.90;;;;;;4957632;28;20470;-53
2023/12/12 06:32:46;;;;;;;5.00;4.23;;;5.60;99.90;;;;;;4965871;28;20458;-53
2023/12/12 06:35:13;;;;;;;5.57;4.70;;;5.70;99.90;;;;;;4957855;28;20505;-53
2023/12/12 06:37:40;;;;;;;7.03;5.03;;;5.70;99.90;;;;;;4957129;28;20955;-53
2023/12/12 06:40:12;;;;;;;8.63;5.97;;;5.70;99.90;;;;;;4964343;28;20782;-53
2023/12/12 06:42:38;;;;;;;5.90;5.40;;;5.80;99.90;;;;;;4961759;28;20451;-54
2023/12/12 06:45:09;;;;;;;5.13;4.63;;;5.80;99.90;;;;;;4963126;28;20551;-53
2023/12/12 06:47:35;;;;;;;9.40;6.83;;;5.80;99.90;;;;;;4953815;28;21265;-53
2023/12/12 06:50:03;;;;;;;12.43;7.60;;;5.80;99.90;;;;;;4961190;28;20917;-52
2023/12/12 06:52:29;;;;;;;7.67;6.97;;;5.80;99.90;;;;;;4957038;28;20470;-53
2023/12/12 06:54:56;;;;;;;19.73;13.30;;;5.80;99.90;;;;;;4954754;28;20454;-52
2023/12/12 06:57:25;;;;;;;14.93;9.53;;;5.90;99.90;;;;;;4957497;28;20520;-54
2023/12/12 06:59:52;;;;;;;11.93;8.57;;;5.90;99.90;;;;;;4968578;28;20438;-53
2023/12/12 07:02:19;;;;;;;14.80;11.37;;;5.90;99.90;;;;;;4965067;28;20449;-52
2023/12/12 07:05:17;;;;;;;18.30;13.03;;;5.90;99.90;;;;;;4970891;28;20548;-54
2023/12/12 07:07:44;;;;;;;11.03;9.57;;;5.90;99.90;;;;;;4971548;28;20465;-57
2023/12/12 07:10:11;;;;;;;16.63;11.53;;;5.90;99.90;;;;;;4966460;28;20473;-58
2023/12/12 07:12:39;;;;;;;11.80;10.50;;;5.90;99.90;;;;;;4956584;28;21019;-57
2023/12/12 07:15:07;;;;;;;16.43;11.70;;;5.90;99.90;;;;;;4957059;28;20516;-57
2023/12/12 07:17:33;;;;;;;17.20;11.60;;;5.90;99.90;;;;;;4953146;28;20477;-59
2023/12/12 07:20:00;;;;;;;16.50;13.03;;;5.90;99.90;;;;;;4957180;28;20963;-57
2023/12/12 07:22:26;;;;;;;17.90;12.40;;;5.80;99.90;;;;;;4954748;28;20549;-58
2023/12/12 07:24:53;;;;;;;13.93;11.70;;;5.80;99.90;;;;;;4960692;28;20490;-59
2023/12/12 07:27:20;;;;;;;15.80;12.53;;;5.80;99.90;;;;;;4955707;28;20510;-56
2023/12/12 07:29:47;;;;;;;12.90;11.00;;;5.80;99.90;;;;;;4955403;28;20493;-57
2023/12/12 07:32:14;;;;;;;13.97;10.30;;;5.90;99.90;;;;;;4960146;28;20450;-58
2023/12/12 07:34:41;;;;;;;16.23;11.93;;;5.90;99.90;;;;;;4956396;28;20653;-57
2023/12/12 07:37:07;;;;;;;13.90;10.90;;;5.80;99.90;;;;;;4958841;28;20560;-57
2023/12/12 07:39:34;;;;;;;10.17;9.10;;;5.90;99.90;;;;;;4959510;28;21041;-57
2023/12/12 07:42:01;;;;;;;12.37;10.37;;;5.90;99.90;;;;;;4957983;28;20863;-56
2023/12/12 07:44:27;;;;;;;11.47;9.03;;;5.90;99.90;;;;;;4958418;28;20481;-57
2023/12/12 07:46:55;;;;;;;10.50;9.33;;;5.90;99.90;;;;;;4952758;28;20510;-57
2023/12/12 07:49:22;;;;;;;11.87;9.40;;;5.90;99.90;;;;;;4958800;28;20458;-57
2023/12/12 07:51:49;;;;;;;13.20;11.00;;;5.90;99.90;;;;;;4967062;28;20456;-57
2023/12/12 07:54:16;;;;;;;10.00;8.60;;;5.90;99.90;;;;;;4963382;28;20458;-57
2023/12/12 07:56:43;;;;;;;14.00;10.50;;;6.00;99.90;;;;;;4964774;28;20458;-58
2023/12/12 07:59:09;;;;;;;10.73;9.63;;;5.90;99.90;;;;;;4960445;28;20510;-58
2023/12/12 08:01:36;;;;;;;11.20;9.93;;;5.90;99.90;;;;;;4957280;28;20665;-58
2023/12/12 08:04:05;;;;;;;13.73;11.53;;;5.90;99.90;;;;;;4964137;28;20521;-56
2023/12/12 08:06:31;;;;;;;13.23;10.57;;;5.90;99.90;;;;;;4953377;28;20867;-57
2023/12/12 08:08:58;;;;;;;13.87;11.27;;;6.00;99.90;;;;;;4961078;28;20466;-58
2023/12/12 08:11:27;;;;;;;13.50;10.37;;;6.00;99.90;;;;;;4954436;28;20525;-57
2023/12/12 08:13:54;;;;;;;11.80;10.23;;;6.00;99.90;;;;;;4961559;28;20470;-57
2023/12/12 08:16:21;;;;;;;15.93;11.00;;;6.10;99.90;;;;;;4962701;28;20474;-57
2023/12/12 08:18:47;;;;;;;12.97;11.00;;;6.10;99.90;;;;;;4957703;28;20521;-57
2023/12/12 08:21:15;;;;;;;12.70;9.60;;;6.10;99.90;;;;;;4965263;28;20959;-56
2023/12/12 08:23:42;;;;;;;10.77;9.60;;;6.10;99.90;;;;;;4961392;28;20512;-57
2023/12/12 08:26:09;;;;;;;10.87;9.87;;;6.10;99.90;;;;;;4962191;28;20846;-56
2023/12/12 08:28:36;;;;;;;11.03;9.93;;;6.10;99.90;;;;;;4969620;28;20441;-58
2023/12/12 08:31:03;;;;;;;12.73;9.40;;;6.10;99.90;;;;;;4967882;28;20507;-56
2023/12/12 08:33:29;;;;;;;12.20;9.87;;;6.20;99.90;;;;;;4968336;28;20446;-57
2023/12/12 08:35:57;;;;;;;11.07;9.43;;;6.20;99.90;;;;;;4954192;28;20489;-56
2023/12/12 08:38:25;;;;;;;10.43;8.20;;;6.30;99.90;;;;;;4967149;28;20967;-57
2023/12/12 08:40:52;;;;;;;14.47;9.70;;;6.20;99.90;;;;;;4951750;28;20980;-57
2023/12/12 08:43:18;;;;;;;12.77;9.80;;;6.30;99.90;;;;;;4956398;28;20513;-56
2023/12/12 08:45:45;;;;;;;9.53;8.53;;;6.30;99.90;;;;;;4962850;28;20493;-57
2023/12/12 08:48:12;;;;;;;8.57;7.10;;;6.30;99.90;;;;;;4961082;28;20944;-57
2023/12/12 08:50:38;;;;;;;11.10;8.03;;;6.30;99.90;;;;;;4962069;28;20532;-56
2023/12/12 08:53:05;;;;;;;7.67;6.93;;;6.30;99.90;;;;;;4962432;28;20563;-57
2023/12/12 08:55:33;;;;;;;12.33;6.13;;;6.40;99.90;;;;;;4961217;28;20533;-58
2023/12/12 08:57:59;;;;;;;18.23;4.97;;;6.40;99.90;;;;;;4960431;28;20468;-57
2023/12/12 09:00:26;;;;;;;7.00;4.93;;;6.40;99.90;;;;;;4961788;28;20442;-57
2023/12/12 09:02:52;;;;;;;6.53;5.37;;;6.40;99.90;;;;;;4964316;28;20507;-57
2023/12/12 09:05:19;;;;;;;7.43;5.20;;;6.40;99.90;;;;;;4964348;28;20485;-57
2023/12/12 09:07:45;;;;;;;6.73;5.23;;;6.40;99.90;;;;;;4961967;28;20465;-58
2023/12/12 09:10:12;;;;;;;12.33;5.17;;;6.40;99.90;;;;;;4957697;28;20525;-57
2023/12/12 09:12:40;;;;;;;5.70;5.20;;;6.40;99.90;;;;;;4958544;28;20469;-57
2023/12/12 09:15:07;;;;;;;8.03;5.00;;;6.40;99.90;;;;;;4955732;28;20521;-58
2023/12/12 09:17:34;;;;;;;8.00;4.67;;;6.50;99.90;;;;;;4961511;28;20446;-56
2023/12/12 09:20:01;;;;;;;8.43;5.73;;;6.50;99.90;;;;;;4963220;28;20450;-57
2023/12/12 09:22:27;;;;;;;8.77;4.97;;;6.50;99.90;;;;;;4967221;28;20485;-57
2023/12/12 09:24:54;;;;;;;11.80;5.47;;;6.40;99.90;;;;;;4959810;28;20446;-56
2023/12/12 09:27:21;;;;;;;8.60;4.80;;;6.50;99.90;;;;;;4964430;28;20452;-57
2023/12/12 09:29:50;;;;;;;10.27;4.80;;;6.50;99.90;;;;;;4963518;28;20928;-57
2023/12/12 09:32:16;;;;;;;10.47;4.90;;;6.50;99.90;;;;;;4963958;28;20457;-56
2023/12/12 09:34:43;;;;;;;9.17;3.90;;;6.40;99.90;;;;;;4957034;28;20462;-58
2023/12/12 09:37:09;;;;;;;7.50;4.70;;;6.40;99.90;;;;;;4967551;28;20470;-56
2023/12/12 09:39:36;;;;;;;12.87;4.63;;;6.40;99.90;;;;;;4960499;28;20454;-56
2023/12/12 09:42:06;;;;;;;11.00;4.67;;;6.40;99.90;;;;;;4964282;28;20450;-56
2023/12/12 09:44:34;;;;;;;10.03;5.07;;;6.40;99.90;;;;;;4964806;28;20443;-57
2023/12/12 09:47:03;;;;;;;15.90;5.40;;;6.40;99.90;;;;;;4966437;28;20541;-57
2023/12/12 09:49:33;;;;;;;11.13;4.00;;;6.30;99.90;;;;;;4969564;28;20504;-57
2023/12/12 09:52:01;;;;;;;7.73;3.87;;;6.40;99.90;;;;;;4958049;28;20469;-56
2023/12/12 09:54:28;;;;;;;6.70;3.73;;;6.40;99.90;;;;;;4964582;28;20473;-57
2023/12/12 09:56:55;;;;;;;15.30;4.67;;;6.30;99.90;;;;;;4960775;28;20461;-56
2023/12/12 09:59:22;;;;;;;4.80;4.10;;;6.30;99.90;;;;;;4961161;28;20450;-56
2023/12/12 10:01:52;;;;;;;9.67;4.00;;;6.30;99.90;;;;;;4963592;28;20520;-56
2023/12/12 10:04:20;;;;;;;6.80;3.83;;;6.40;99.90;;;;;;4965296;28;20871;-56
2023/12/12 10:06:52;;;;;;;15.10;3.50;;;6.30;99.90;;;;;;4970736;28;20489;-56
2023/12/12 10:09:19;;;;;;;4.00;3.37;;;6.30;99.90;;;;;;4967070;28;21023;-57
2023/12/12 10:11:46;;;;;;;8.33;4.20;;;6.30;99.90;;;;;;4960560;28;20460;-57
2023/12/12 10:14:13;;;;;;;11.33;4.73;;;6.40;99.90;;;;;;4966626;28;20520;-57
2023/12/12 10:16:39;;;;;;;10.20;3.83;;;6.40;99.90;;;;;;4967068;28;20879;-57
2023/12/12 10:19:12;;;;;;;9.73;4.70;;;6.40;99.90;;;;;;4966524;28;20828;-57
2023/12/12 10:21:40;;;;;;;6.93;3.60;;;6.40;99.90;;;;;;4968981;28;20454;-56
2023/12/12 10:24:06;;;;;;;5.50;3.13;;;6.30;99.90;;;;;;4965853;28;20453;-56
2023/12/12 10:26:34;;;;;;;8.17;3.17;;;6.30;99.90;;;;;;4969957;28;20493;-56
2023/12/12 10:29:01;;;;;;;3.93;3.10;;;6.30;99.90;;;;;;4959300;28;20454;-56
2023/12/12 10:31:29;;;;;;;8.70;3.33;;;6.40;99.90;;;;;;4963429;28;20505;-56
2023/12/12 10:33:56;;;;;;;10.67;3.80;;;6.40;99.90;;;;;;4965269;28;20536;-56
2023/12/12 10:36:24;;;;;;;5.27;3.17;;;6.40;99.90;;;;;;4959013;28;20520;-56
2023/12/12 10:38:52;;;;;;;11.07;3.50;;;6.40;99.90;;;;;;4967343;28;20834;-58
2023/12/12 10:41:19;;;;;;;5.60;3.60;;;6.40;99.90;;;;;;4966582;28;20506;-56
2023/12/12 10:43:47;;;;;;;9.13;3.50;;;6.40;99.90;;;;;;4960249;28;20458;-56
2023/12/12 10:46:15;;;;;;;6.93;3.77;;;6.40;99.90;;;;;;4961394;28;20491;-56
2023/12/12 10:48:46;;;;;;;7.43;4.03;;;6.40;99.90;;;;;;4966888;28;20450;-56
2023/12/12 10:51:13;;;;;;;6.57;3.20;;;6.50;99.90;;;;;;4968121;28;20944;-57
2023/12/12 10:53:41;;;;;;;8.63;4.60;;;6.50;99.90;;;;;;4966265;28;20441;-58
2023/12/12 10:56:11;;;;;;;12.23;3.63;;;6.40;99.90;;;;;;4959783;28;20472;-57
2023/12/12 10:58:39;;;;;;;4.50;3.10;;;6.40;99.90;;;;;;4963156;28;20467;-57
2023/12/12 11:01:07;;;;;;;8.60;4.47;;;6.40;99.90;;;;;;4961799;28;20465;-57
2023/12/12 11:03:36;;;;;;;11.00;3.70;;;6.40;99.90;;;;;;4965182;28;20450;-57
2023/12/12 11:06:03;;;;;;;9.53;3.63;;;6.40;99.90;;;;;;4962434;28;20867;-57
2023/12/12 11:08:31;;;;;;;6.47;3.23;;;6.40;99.90;;;;;;4966093;28;20446;-57
2023/12/12 11:10:58;;;;;;;9.60;3.57;;;6.50;99.90;;;;;;4965950;28;20473;-56
2023/12/12 11:13:29;;;;;;;8.97;4.17;;;6.60;99.90;;;;;;4956128;28;20949;-57
2023/12/12 11:15:57;;;;;;;8.13;4.30;;;6.60;99.90;;;;;;4961103;28;20533;-57
2023/12/12 11:18:24;;;;;;;5.17;3.40;;;6.70;99.90;;;;;;4963307;28;20450;-57
2023/12/12 11:20:50;;;;;;;8.80;3.60;;;6.70;99.90;;;;;;4965018;28;20450;-57
2023/12/12 11:23:53;;;;;;;4.53;3.37;;;6.70;99.90;;;;;;4966335;28;20450;-56
2023/12/12 11:26:22;;;;;;;3.53;2.80;;;6.70;99.90;;;;;;4966422;28;20505;-56
2023/12/12 11:28:50;;;;;;;6.57;3.30;;;6.70;99.90;;;;;;4958816;28;20478;-55
2023/12/12 11:31:27;;;;;;;4.13;3.10;;;6.70;99.90;;;;;;4967382;28;20472;-57
2023/12/12 11:34:04;;;;;;;5.57;3.80;;;6.60;99.90;;;;;;4969118;28;20528;-56
2023/12/12 11:36:48;;;;;;;7.07;4.00;;;6.60;99.90;;;;;;4965027;28;20502;-56
2023/12/12 11:39:19;;;;;;;7.93;3.73;;;6.70;99.90;;;;;;4957244;28;20674;-57
2023/12/12 11:41:46;;;;;;;7.20;3.70;;;6.70;99.90;;;;;;4959083;28;20500;-57
2023/12/12 11:44:14;;;;;;;6.37;3.87;;;6.80;99.90;;;;;;4955229;28;20509;-56
2023/12/12 11:46:43;;;;;;;7.67;3.13;;;6.80;99.90;;;;;;4958975;28;20547;-56
2023/12/12 11:49:20;;;;;;;9.20;3.93;;;6.70;99.90;;;;;;4961274;28;20884;-56
2023/12/12 11:51:49;;;;;;;7.83;4.20;;;6.80;99.90;;;;;;4965862;28;20441;-58
2023/12/12 11:54:20;;;;;;;7.63;3.43;;;6.80;99.90;;;;;;4964770;28;20568;-57
2023/12/12 11:56:47;;;;;;;5.43;4.17;;;6.80;99.90;;;;;;4967141;28;20458;-57
2023/12/12 11:59:21;;;;;;;9.23;4.37;;;6.80;99.90;;;;;;4960345;28;20441;-56
2023/12/12 12:01:48;;;;;;;4.70;3.60;;;6.80;99.90;;;;;;4959303;28;20447;-56
2023/12/12 12:04:15;;;;;;;6.53;4.40;;;6.80;99.90;;;;;;4963482;28;20474;-57
2023/12/12 12:06:42;;;;;;;11.20;5.10;;;6.70;99.90;;;;;;4960356;28;20576;-57
2023/12/12 12:09:10;;;;;;;11.70;3.80;;;6.70;99.90;;;;;;4956241;28;20454;-57
2023/12/12 12:11:37;;;;;;;11.20;4.20;;;6.80;99.90;;;;;;4957477;28;20478;-57
2023/12/12 12:14:03;;;;;;;8.47;4.57;;;6.90;99.90;;;;;;4961434;28;20450;-57
2023/12/12 12:16:31;;;;;;;4.53;3.90;;;6.90;99.90;;;;;;4961820;28;20964;-57
2023/12/12 12:18:58;;;;;;;8.63;4.43;;;7.00;99.90;;;;;;4963106;28;20512;-57
2023/12/12 12:21:25;;;;;;;6.80;4.83;;;7.00;99.90;;;;;;4959877;28;20447;-57
2023/12/12 12:23:52;;;;;;;10.40;4.07;;;7.00;92.50;;;;;;4965857;28;20983;-57
2023/12/12 12:26:19;;;;;;;8.23;4.00;;;6.90;24.80;;;;;;4960225;28;20569;-56
2023/12/12 12:28:45;;;;;;;11.83;4.87;;;6.90;20.70;;;;;;4964870;28;20450;-57
2023/12/12 12:31:13;;;;;;;6.83;3.90;;;6.90;22.30;;;;;;4958716;28;20458;-56
2023/12/12 12:33:41;;;;;;;7.87;4.27;;;6.80;25.50;;;;;;4962841;28;20925;-57
2023/12/12 12:36:08;;;;;;;10.83;4.37;;;6.80;26.00;;;;;;4964142;28;20885;-56
2023/12/12 12:38:35;;;;;;;8.70;4.30;;;6.80;25.40;;;;;;4960463;28;20446;-57
2023/12/12 12:41:01;;;;;;;10.50;4.90;;;6.80;25.60;;;;;;4964732;28;20457;-56
2023/12/12 12:43:28;;;;;;;10.13;4.37;;;6.90;26.10;;;;;;4967521;28;20461;-55
2023/12/12 12:45:56;;;;;;;9.07;4.93;;;6.90;25.60;;;;;;4968114;28;20473;-56
2023/12/12 12:48:22;;;;;;;5.27;4.60;;;6.90;25.80;;;;;;4965441;28;20458;-57
2023/12/12 12:50:51;;;;;;;7.90;5.10;;;6.90;24.30;;;;;;4968005;28;20445;-57
2023/12/12 12:53:18;;;;;;;10.00;4.30;;;7.00;23.70;;;;;;4964583;28;20545;-58